createdAt,value
2022-09-22T21:31:02.526Z,1015.56
2022-09-22T21:32:02.472Z,1015.53
2022-09-22T21:33:02.503Z,1015.53
2022-09-22T21:34:02.531Z,1015.49
2022-09-22T21:35:02.560Z,1015.55
2022-09-22T21:36:02.589Z,1015.50
2022-09-22T21:37:02.872Z,1015.50
2022-09-22T21:38:02.651Z,1015.51
2022-09-22T21:39:02.678Z,1015.51
2022-09-22T21:40:02.773Z,1015.52
2022-09-22T21:41:02.765Z,1015.51
2022-09-22T21:42:02.770Z,1015.54
2022-09-22T21:43:03.100Z,1015.51
2022-09-22T21:44:02.828Z,1015.55
2022-09-22T21:45:02.862Z,1015.51
2022-09-22T21:46:05.355Z,1015.49
2022-09-22T21:47:03.053Z,1015.51
2022-09-22T21:48:02.952Z,1015.49
2022-09-22T21:49:03.233Z,1015.52
2022-09-22T21:50:03.024Z,1015.48
2022-09-22T21:51:03.046Z,1015.44
2022-09-22T21:52:03.096Z,1015.48
2022-09-22T21:53:03.103Z,1015.46
2022-09-22T21:54:03.130Z,1015.48
2022-09-22T21:55:03.416Z,1015.50
2022-09-22T21:56:03.199Z,1015.48
2022-09-22T21:57:03.227Z,1015.49
2022-09-22T21:59:03.296Z,1015.46
2022-09-22T22:00:03.325Z,1015.48
2022-09-22T22:01:03.362Z,1015.46
2022-09-22T22:02:03.654Z,1015.46
2022-09-22T22:03:03.519Z,1015.47
2022-09-22T22:04:03.617Z,1015.44
2022-09-22T22:05:03.473Z,1015.44
2022-09-22T22:06:03.533Z,1015.42
2022-09-22T22:07:03.538Z,1015.37
2022-09-22T22:08:03.680Z,1015.41
2022-09-22T22:09:03.855Z,1015.34
2022-09-22T22:10:03.630Z,1015.38
2022-09-22T22:11:03.660Z,1015.38
2022-09-22T22:12:03.693Z,1015.39
2022-09-22T22:13:03.725Z,1015.38
2022-09-22T22:14:03.760Z,1015.39
2022-09-22T22:15:03.784Z,1015.39
2022-09-22T22:16:04.183Z,1015.37
2022-09-22T22:17:03.850Z,1015.38
2022-09-22T22:18:03.882Z,1015.33
2022-09-22T22:19:03.937Z,1015.35
2022-09-22T22:20:03.940Z,1015.35
2022-09-22T22:21:03.980Z,1015.35
2022-09-22T22:22:04.003Z,1015.29
2022-09-22T22:23:04.292Z,1015.29
2022-09-22T22:24:04.071Z,1015.33
2022-09-22T22:25:04.095Z,1015.29
2022-09-22T22:26:04.129Z,1015.29
2022-09-22T22:27:04.162Z,1015.29
2022-09-22T22:28:04.192Z,1015.28
2022-09-22T22:29:04.223Z,1015.26
2022-09-22T22:30:04.561Z,1015.26
2022-09-22T22:31:04.367Z,1015.24
2022-09-22T22:32:04.324Z,1015.24
2022-09-22T22:33:04.347Z,1015.22
2022-09-22T22:34:04.386Z,1015.20
2022-09-22T22:35:04.432Z,1015.19
2022-09-22T22:36:04.441Z,1015.20
2022-09-22T22:37:04.799Z,1015.17
2022-09-22T22:38:04.504Z,1015.16
2022-09-22T22:39:04.536Z,1015.16
2022-09-22T22:40:04.639Z,1015.16
2022-09-22T22:41:04.603Z,1015.12
2022-09-22T22:42:04.630Z,1015.16
2022-09-22T22:43:04.665Z,1015.18
2022-09-22T22:44:05.014Z,1015.13
2022-09-22T22:45:04.724Z,1015.17
2022-09-22T22:46:04.785Z,1015.13
2022-09-22T22:47:04.786Z,1015.20
2022-09-22T22:48:04.818Z,1015.17
2022-09-22T22:49:04.845Z,1015.14
2022-09-22T22:50:04.886Z,1015.12
2022-09-22T22:51:07.438Z,1015.14
2022-09-22T22:52:04.941Z,1015.14
2022-09-22T22:53:04.979Z,1015.16
2022-09-22T22:54:05.014Z,1015.18
2022-09-22T22:55:05.039Z,1015.16
2022-09-22T22:56:05.091Z,1015.17
2022-09-22T22:57:05.102Z,1015.15
2022-09-22T22:58:05.390Z,1015.15
2022-09-22T22:59:05.200Z,1015.17
2022-09-22T23:00:05.200Z,1015.14
2022-09-22T23:01:05.328Z,1015.13
2022-09-22T23:02:05.257Z,1015.13
2022-09-22T23:03:05.600Z,1015.11
2022-09-22T23:04:05.319Z,1015.10
2022-09-22T23:05:05.735Z,1015.12
2022-09-22T23:06:05.385Z,1015.14
2022-09-22T23:07:05.432Z,1015.10
2022-09-22T23:08:05.447Z,1015.14
2022-09-22T23:09:05.474Z,1015.14
2022-09-22T23:10:05.507Z,1015.15
2022-09-22T23:11:05.541Z,1015.13
2022-09-22T23:12:05.870Z,1015.13
2022-09-22T23:13:05.604Z,1015.12
2022-09-22T23:14:05.807Z,1015.10
2022-09-22T23:15:05.667Z,1015.11
2022-09-22T23:16:05.985Z,1015.12
2022-09-22T23:17:05.733Z,1015.14
2022-09-22T23:18:05.765Z,1015.09
2022-09-22T23:19:06.171Z,1015.09
2022-09-22T23:20:05.860Z,1015.09
2022-09-22T23:21:05.853Z,1015.05
2022-09-22T23:22:05.884Z,1015.05
2022-09-22T23:23:05.940Z,1015.04
2022-09-22T23:24:05.955Z,1015.03
2022-09-22T23:25:06.281Z,1015.02
2022-09-22T23:26:06.016Z,1015.01
2022-09-22T23:27:06.067Z,1015.02
2022-09-22T23:28:06.077Z,1014.98
2022-09-22T23:29:06.300Z,1014.97
2022-09-22T23:30:06.137Z,1014.96
2022-09-22T23:31:06.521Z,1014.96
2022-09-22T23:32:06.203Z,1014.94
2022-09-22T23:33:06.232Z,1014.95
2022-09-22T23:34:06.265Z,1014.93
2022-09-22T23:35:06.292Z,1014.91
2022-09-22T23:36:06.329Z,1014.88
2022-09-22T23:37:06.629Z,1014.90
2022-09-22T23:38:08.938Z,1014.84
2022-09-22T23:39:06.608Z,1014.88
2022-09-22T23:40:06.552Z,1014.88
2022-09-22T23:41:06.484Z,1014.86
2022-09-22T23:42:06.511Z,1014.85
2022-09-22T23:43:06.543Z,1014.86
2022-09-22T23:44:07.238Z,1014.84
2022-09-22T23:45:06.627Z,1014.83
2022-09-22T23:46:06.734Z,1014.84
2022-09-22T23:47:06.677Z,1014.84
2022-09-22T23:48:06.712Z,1014.83
2022-09-22T23:49:06.745Z,1014.83
2022-09-22T23:50:06.767Z,1014.78
2022-09-22T23:51:07.095Z,1014.79
2022-09-22T23:52:06.831Z,1014.78
2022-09-22T23:53:06.860Z,1014.78
2022-09-22T23:54:07.101Z,1014.79
2022-09-22T23:55:06.940Z,1014.79
2022-09-22T23:56:06.952Z,1014.81
2022-09-22T23:57:06.985Z,1014.75
2022-09-22T23:58:07.270Z,1014.74
2022-09-22T23:59:07.051Z,1014.78
